createdAt,value
2018-03-21T18:59:45.622Z,64.2
2018-03-21T19:00:46.963Z,63.7
2018-03-21T19:01:48.354Z,63.6
2018-03-21T19:02:49.744Z,63.8
2018-03-21T19:03:51.154Z,63.6
2018-03-21T19:04:52.556Z,63.7
2018-03-21T19:05:53.947Z,63.8
2018-03-21T19:06:55.344Z,63.6
2018-03-21T19:07:56.740Z,63.6
2018-03-21T19:08:58.133Z,63.7
2018-03-21T19:09:59.518Z,63.8
2018-03-21T19:11:00.934Z,63.5
2018-03-21T19:12:02.331Z,63.8
2018-03-21T19:13:03.714Z,63.9
2018-03-21T19:14:05.142Z,64.2
2018-03-21T19:15:06.552Z,64.7
2018-03-21T19:16:07.949Z,64.7
2018-03-21T19:17:09.351Z,65.0
2018-03-21T19:18:10.745Z,65.5
2018-03-21T19:19:12.141Z,65.5
2018-03-21T19:20:13.532Z,65.9
2018-03-21T19:21:14.925Z,66.0
2018-03-21T19:22:16.337Z,66.6
2018-03-21T19:23:17.730Z,66.4
2018-03-21T19:24:19.206Z,65.6
2018-03-21T19:25:20.594Z,65.3
2018-03-21T19:26:23.593Z,65.6
2018-03-21T19:27:24.982Z,66.3
2018-03-21T19:28:26.388Z,66.3
2018-03-21T19:29:27.782Z,66.4
2018-03-21T19:30:29.170Z,67.4
2018-03-21T19:31:30.568Z,67.8
2018-03-21T19:32:31.962Z,67.6
2018-03-21T19:33:33.355Z,67.6
2018-03-21T19:34:34.758Z,67.8
2018-03-21T19:35:36.152Z,67.7
2018-03-21T19:36:38.643Z,68.4
2018-03-21T19:37:40.032Z,68.8
2018-03-21T19:38:41.442Z,69.0
2018-03-21T19:39:43.002Z,68.9
2018-03-21T19:40:44.337Z,68.3
2018-03-21T19:41:45.768Z,67.9
2018-03-21T19:42:47.230Z,67.7
2018-03-21T19:43:48.692Z,67.4
2018-03-21T19:44:50.181Z,67.5
2018-03-21T19:45:51.724Z,67.7
2018-03-21T19:46:53.253Z,67.8
2018-03-21T19:47:54.788Z,68.2
2018-03-21T19:48:56.279Z,68.6
2018-03-21T19:49:57.840Z,67.8
2018-03-21T19:50:59.363Z,68.3
2018-03-21T19:52:00.814Z,68.0
2018-03-21T19:53:02.287Z,68.4
2018-03-21T19:54:03.883Z,68.7
2018-03-21T19:55:05.318Z,68.6
2018-03-21T19:56:06.735Z,69.4
2018-03-21T19:57:08.172Z,69.4
2018-03-21T19:58:09.608Z,70.1
2018-03-21T19:59:11.115Z,69.6
2018-03-21T20:00:12.502Z,69.3
2018-03-21T20:01:13.929Z,70.2
2018-03-21T20:02:15.397Z,69.9
2018-03-21T20:03:16.859Z,70.3
2018-03-21T20:04:18.326Z,70.3
2018-03-21T20:05:19.814Z,69.8
2018-03-21T20:06:21.386Z,69.7
2018-03-21T20:07:22.903Z,70.7
2018-03-21T20:08:24.473Z,71.0
2018-03-21T20:09:26.037Z,71.7
2018-03-21T20:10:27.594Z,71.2
2018-03-21T20:11:29.064Z,71.6
2018-03-21T20:12:30.653Z,71.2
2018-03-21T20:13:32.163Z,71.7
2018-03-21T20:14:33.744Z,71.2
2018-03-21T20:15:35.287Z,71.3
2018-03-21T20:16:36.844Z,71.8
2018-03-21T20:17:38.696Z,71.7
2018-03-21T20:18:40.572Z,71.6
2018-03-21T20:19:42.113Z,71.7
2018-03-21T20:20:43.731Z,72.5
2018-03-21T20:21:45.416Z,72.5
2018-03-21T20:22:46.897Z,72.7
2018-03-21T20:23:48.400Z,72.6
2018-03-21T20:24:49.964Z,72.5
2018-03-21T20:25:51.543Z,73.4
2018-03-21T20:26:53.136Z,73.4
2018-03-21T20:27:54.661Z,73.9
2018-03-21T20:28:56.161Z,73.9
2018-03-21T20:29:57.849Z,74.0
2018-03-21T20:30:59.928Z,74.7
2018-03-21T20:32:01.996Z,74.6
2018-03-21T20:33:04.666Z,75.0
2018-03-21T20:34:06.261Z,75.3
2018-03-21T20:35:07.783Z,74.9
2018-03-21T20:36:09.342Z,74.7
2018-03-21T20:37:10.778Z,75.8
2018-03-21T20:38:12.207Z,75.8
2018-03-21T20:39:13.698Z,76.0
2018-03-21T20:40:15.258Z,76.1
2018-03-21T20:41:16.837Z,76.3
2018-03-21T20:42:18.325Z,76.4
2018-03-21T20:43:19.798Z,76.3
2018-03-21T20:44:21.287Z,75.9
2018-03-21T20:45:22.841Z,76.4
2018-03-21T20:46:24.380Z,76.7
2018-03-21T20:47:25.995Z,76.9
2018-03-21T20:48:27.452Z,77.2
2018-03-21T20:49:28.983Z,76.8
2018-03-21T20:50:30.460Z,76.8
2018-03-21T20:51:31.971Z,76.8
2018-03-21T20:52:33.553Z,76.7
2018-03-21T20:53:35.204Z,77.5
2018-03-21T20:54:36.863Z,77.3
2018-03-21T20:55:38.379Z,77.8
2018-03-21T20:56:39.912Z,77.7
2018-03-21T20:57:41.411Z,77.3
2018-03-21T20:58:42.977Z,77.4
2018-03-21T20:59:44.462Z,77.8
2018-03-21T21:00:45.895Z,77.7
2018-03-21T21:01:47.438Z,77.3
2018-03-21T21:02:48.962Z,78.5
2018-03-21T21:03:50.466Z,78.2
2018-03-21T21:04:52.178Z,78.2
2018-03-21T21:05:53.711Z,78.5
2018-03-21T21:06:55.196Z,78.2
2018-03-21T21:07:56.731Z,78.2
2018-03-21T21:08:58.299Z,78.2
2018-03-21T21:09:59.818Z,78.2
2018-03-21T21:11:01.334Z,78.4
2018-03-21T21:12:02.847Z,79.0
2018-03-21T21:13:04.363Z,79.1
2018-03-21T21:14:05.925Z,79.4
2018-03-21T21:15:07.471Z,79.2
2018-03-21T21:16:08.986Z,78.8
2018-03-21T21:17:10.541Z,79.2
2018-03-21T21:18:12.062Z,78.9
2018-03-21T21:19:53.023Z,78.9
2018-03-21T21:21:33.918Z,78.9
2018-03-21T21:23:14.827Z,78.5
2018-03-21T21:24:16.214Z,78.2
2018-03-21T21:25:17.603Z,78.1
2018-03-21T21:26:32.823Z,78.4
2018-03-21T21:27:31.368Z,78.4
2018-03-21T21:28:32.757Z,78.5
2018-03-21T21:29:34.166Z,78.2
2018-03-21T21:30:35.650Z,78.1
2018-03-21T21:31:37.050Z,78.8
2018-03-21T21:32:38.448Z,79.0
2018-03-21T21:33:39.869Z,78.9
2018-03-21T21:34:41.300Z,78.4
2018-03-21T21:35:42.694Z,78.7
2018-03-21T21:36:44.180Z,79.2
2018-03-21T21:37:45.585Z,80.2
2018-03-21T21:38:47.019Z,80.0
2018-03-21T21:39:48.415Z,79.7
2018-03-21T21:40:49.829Z,79.4
2018-03-21T21:41:51.219Z,79.5
2018-03-21T21:42:52.616Z,79.1
2018-03-21T21:43:54.019Z,79.2
2018-03-21T21:44:55.418Z,79.0
2018-03-21T21:45:56.795Z,79.4
2018-03-21T21:46:58.181Z,79.8
2018-03-21T21:47:59.574Z,79.4
2018-03-21T21:49:00.981Z,79.2
2018-03-21T21:50:02.367Z,79.9
2018-03-21T21:51:03.767Z,80.5
2018-03-21T21:52:05.151Z,81.1
2018-03-21T21:53:06.538Z,80.6
2018-03-21T21:54:07.935Z,80.6
2018-03-21T21:55:09.333Z,80.9
2018-03-21T21:56:10.722Z,80.9
2018-03-21T21:57:12.119Z,81.0
2018-03-21T21:58:13.506Z,81.1
2018-03-21T21:59:14.903Z,81.5
2018-03-21T22:00:16.282Z,81.7
2018-03-21T22:01:17.673Z,82.2
2018-03-21T22:02:19.069Z,82.6
2018-03-21T22:03:20.460Z,82.6
2018-03-21T22:04:21.853Z,82.7
2018-03-21T22:06:02.717Z,81.8
2018-03-21T22:07:04.108Z,81.4
2018-03-21T22:08:05.509Z,80.7
2018-03-21T22:09:06.900Z,81.1
2018-03-21T22:10:08.289Z,81.3
2018-03-21T22:11:09.679Z,81.1
2018-03-21T22:12:11.070Z,81.6
2018-03-21T22:13:12.465Z,81.8
2018-03-21T22:14:13.852Z,81.6
2018-03-21T22:15:15.243Z,81.5
2018-03-21T22:16:16.627Z,81.5
2018-03-21T22:17:18.021Z,80.9
2018-03-21T22:18:19.427Z,81.3
2018-03-21T22:19:20.813Z,81.6
2018-03-21T22:20:22.193Z,81.2
2018-03-21T22:21:23.585Z,82.4
2018-03-21T22:22:24.974Z,82.1
2018-03-21T22:23:26.375Z,82.3
2018-03-21T22:24:27.781Z,82.3
2018-03-21T22:25:29.300Z,82.0
2018-03-21T22:26:30.691Z,82.6
2018-03-21T22:27:32.093Z,82.5
2018-03-21T22:28:33.547Z,82.2
2018-03-21T22:29:34.940Z,82.0
2018-03-21T22:30:36.341Z,82.0
2018-03-21T22:31:37.731Z,83.0
2018-03-21T22:32:39.137Z,82.8
2018-03-21T22:33:40.518Z,82.8
2018-03-21T22:34:41.907Z,82.3
2018-03-21T22:35:43.297Z,82.6
2018-03-21T22:36:44.681Z,82.7
2018-03-21T22:37:46.078Z,82.9
2018-03-21T22:38:47.467Z,83.5
2018-03-21T22:39:48.876Z,83.5
2018-03-21T22:40:50.259Z,83.5
2018-03-21T22:41:51.665Z,83.4
2018-03-21T22:42:53.081Z,83.5
2018-03-21T22:43:54.495Z,83.5
2018-03-21T22:44:55.972Z,83.4
2018-03-21T22:45:57.365Z,83.5
2018-03-21T22:46:58.762Z,84.1
2018-03-21T22:48:00.149Z,84.0
2018-03-21T22:49:01.542Z,84.0
2018-03-21T22:50:02.936Z,84.0
2018-03-21T22:51:04.320Z,84.0
2018-03-21T22:52:05.714Z,83.5
2018-03-21T22:53:07.109Z,83.6
2018-03-21T22:54:08.492Z,83.5
2018-03-21T22:55:09.904Z,83.6
2018-03-21T22:56:11.287Z,83.5
2018-03-21T22:57:12.675Z,83.5
2018-03-21T22:58:14.091Z,83.8
2018-03-21T22:59:15.503Z,83.5
2018-03-21T23:00:16.896Z,84.0
2018-03-21T23:01:18.294Z,83.5
2018-03-21T23:02:19.688Z,83.7
2018-03-21T23:03:21.082Z,83.5
2018-03-21T23:04:22.507Z,83.6
2018-03-21T23:05:23.903Z,83.6
2018-03-21T23:06:25.288Z,83.0
2018-03-21T23:07:26.686Z,83.6
2018-03-21T23:08:28.106Z,83.6
2018-03-21T23:09:29.499Z,83.5
2018-03-21T23:10:30.885Z,84.0
2018-03-21T23:11:32.311Z,83.9
2018-03-21T23:12:33.710Z,83.5
2018-03-21T23:13:35.106Z,84.0
2018-03-21T23:14:36.490Z,84.2
2018-03-21T23:15:38.074Z,84.1
2018-03-21T23:16:39.521Z,84.8
2018-03-21T23:17:40.934Z,85.2
2018-03-21T23:18:42.360Z,84.6
2018-03-21T23:19:43.859Z,84.7
2018-03-21T23:20:45.346Z,84.2
2018-03-21T23:21:46.913Z,84.3
2018-03-21T23:22:48.494Z,84.6
2018-03-21T23:23:50.149Z,84.5
2018-03-21T23:24:52.070Z,84.6
2018-03-21T23:25:53.491Z,84.8
2018-03-21T23:26:55.522Z,84.8
2018-03-21T23:27:57.508Z,84.8
2018-03-21T23:28:59.425Z,85.2
2018-03-21T23:30:01.510Z,85.1
2018-03-21T23:31:03.312Z,85.6
2018-03-21T23:32:05.007Z,85.6
2018-03-21T23:33:06.564Z,85.8
2018-03-21T23:34:08.748Z,85.7
2018-03-21T23:35:10.536Z,85.8
2018-03-21T23:36:12.214Z,85.6
2018-03-21T23:37:13.739Z,85.8
2018-03-21T23:38:15.275Z,85.9
2018-03-21T23:39:16.793Z,85.5
2018-03-21T23:40:18.436Z,85.1
2018-03-21T23:41:19.978Z,85.0
2018-03-21T23:42:21.601Z,85.6
2018-03-21T23:43:23.127Z,85.9
2018-03-21T23:44:24.667Z,85.7
2018-03-21T23:45:26.121Z,85.9
2018-03-21T23:46:27.672Z,86.4
2018-03-21T23:47:29.246Z,86.2
2018-03-21T23:48:30.743Z,86.1
2018-03-21T23:49:32.268Z,86.0
2018-03-21T23:50:33.724Z,86.0
2018-03-21T23:51:35.232Z,86.1
2018-03-21T23:52:36.779Z,86.5
2018-03-21T23:53:38.287Z,86.6
2018-03-21T23:54:39.800Z,86.9
2018-03-21T23:55:41.252Z,87.3
2018-03-21T23:56:43.371Z,87.6
2018-03-21T23:57:44.904Z,87.5
2018-03-21T23:58:46.726Z,87.9
2018-03-21T23:59:48.848Z,88.2
